Aviation Digital Data Service (ADDS)

Output produced by METARs form (2139 UTC 17 April 2014)
found at http://aviationweather.gov/adds/metars/
 
KCLT 172059Z 1721/1818 08008KT P6SM FEW250 
     FM180300 04007KT P6SM FEW040 
     FM181000 04008KT P6SM BKN040